Jasper, Canada
Current Conditions -  °F | °C
As of 6:00 PM on Thursday 27 Nov 2014 (Local Time) from CYET Reporting Station
Light Snow Light Snow  
Wind Chill: -14°   Ceiling: 2600
Heat Index: -2°   Visibility: 1.7mi
Dew Point: -6°   Wind: 6mph
Humidity: 85%   Direction: 90°E
Pressure: 29.9"   Gusts: NA
Location:  52.87°N, 118.08°W
Report Text: CYET 280100Z AUTO 09005KT 1 3/4SM -SN OVC026 M19/M21 A2990 RMK SLP199
Loading
Personal Weather Stations






























Interactive Weather Map New forecast layout! Learn more

10-Day Weather Forecast

Advertisements
Track Severe Weather on mobile